Birdseye, Indiana
Current Conditions -  °F | °C
As of 2:55 AM on Monday 20 Oct 2014 (Local Time) from KHNB Reporting Station
Overcast Overcast  
Wind Chill: 44°   Ceiling: 12000
Heat Index: 46°   Visibility: 9mi
Dew Point: 43°   Wind: 5mph
Humidity: 87%   Direction: 210°SSW
Pressure: 30.05"   Gusts: NA
Location:  38.32°N, 86.7°W
Report Text: KHNB 200755Z AUTO 21004KT 9SM OVC120 08/06 A3005 RMK AO1
Loading
Personal Weather Stations






























Interactive Weather Map
Tropical Storm Tracking
New forecast layout! Learn more

10-Day Weather Forecast

Advertisements
Track Severe Weather on mobile